Terminal Aerodrome Forecast
Issued by NWS

Current Version | Previous Version | Text Only | Print | Product List | Glossary Off
Versions: 1 2 3 4 5 6 7 8 9 10 11 12 13 14 15 16 17

000
FTUS41 KPBZ 222300
TAFMGW
TAF
KMGW 222340Z 2300/2324 12006KT P6SM BKN040
     FM231000 15008KT P6SM BKN025
     FM231600 17010KT P6SM OVC040=

USA.gov is the U.S. government's official web portal to all federal, state and local government web resources and services.